Aviation Digital Data Service (ADDS)

Output produced by TAFs form (0644 UTC 25 July 2014)
found at http://www.aviationweather.gov/adds/tafs/
 
KALB 250520Z 2506/2606 32004KT P6SM FEW250 
     FM251300 31004KT P6SM SKC 
     FM251600 29006KT P6SM SCT040 SCT250 
     FM260000 VRB03KT P6SM SKC